createdAt,value
2022-12-15T00:00:24.076Z,67.34
2022-12-15T00:03:31.694Z,62.41
2022-12-15T00:06:19.778Z,60.75
2022-12-15T00:09:11.137Z,56.21
2022-12-15T00:12:00.865Z,55.53
2022-12-15T00:14:47.601Z,57.23
2022-12-15T00:17:34.646Z,57.85
2022-12-15T00:20:22.245Z,60.97
2022-12-15T00:23:09.457Z,61.12
2022-12-15T00:25:56.275Z,65.86
2022-12-15T00:28:43.645Z,71.32
2022-12-15T00:31:30.883Z,68.37
2022-12-15T00:34:17.655Z,64.64
2022-12-15T00:37:04.647Z,60.20
2022-12-15T00:39:33.045Z,56.93
2022-12-15T00:42:01.099Z,54.72
2022-12-15T00:44:29.136Z,55.25
2022-12-15T00:46:57.395Z,56.17
2022-12-15T00:49:46.862Z,57.54
2022-12-15T00:52:35.783Z,58.45
2022-12-15T00:55:23.840Z,60.67
2022-12-15T00:58:12.762Z,66.26
2022-12-15T01:00:59.837Z,71.55
2022-12-15T01:03:46.728Z,67.77
2022-12-15T01:06:37.425Z,63.23
2022-12-15T01:09:26.570Z,61.79
2022-12-15T01:12:13.994Z,51.98
2022-12-15T01:15:00.556Z,51.34
2022-12-15T01:17:47.770Z,52.40
2022-12-15T01:20:16.249Z,55.03
2022-12-15T01:22:56.235Z,56.21
2022-12-15T01:25:26.300Z,57.51
2022-12-15T01:27:54.574Z,59.39
2022-12-15T01:30:24.983Z,60.14
2022-12-15T01:32:53.354Z,61.44
2022-12-15T01:35:22.038Z,65.38
2022-12-15T01:37:50.353Z,72.85
2022-12-15T01:40:39.166Z,68.07
2022-12-15T01:43:17.876Z,64.17
2022-12-15T01:45:59.048Z,54.92
2022-12-15T01:48:33.131Z,51.40
2022-12-15T01:51:10.577Z,52.56
2022-12-15T01:53:53.584Z,54.95
2022-12-15T01:56:25.457Z,56.66
2022-12-15T01:58:56.599Z,57.56
2022-12-15T02:01:24.594Z,59.28
2022-12-15T02:03:52.756Z,60.78
2022-12-15T02:06:22.559Z,64.67
2022-12-15T02:08:55.529Z,72.18
2022-12-15T02:11:53.712Z,66.41
2022-12-15T02:14:53.531Z,62.07
2022-12-15T02:17:51.483Z,51.00
2022-12-15T02:20:34.010Z,50.13
2022-12-15T02:23:36.233Z,51.77
2022-12-15T02:26:29.367Z,54.40
2022-12-15T02:29:23.928Z,56.58
2022-12-15T02:32:00.483Z,58.16
2022-12-15T02:34:47.776Z,59.60
2022-12-15T02:37:39.037Z,60.64
2022-12-15T02:40:09.582Z,61.61
2022-12-15T02:42:44.593Z,70.02
2022-12-15T02:45:16.674Z,71.77
2022-12-15T02:47:59.751Z,59.00
2022-12-15T02:50:51.863Z,49.49
2022-12-15T02:53:32.411Z,50.37
2022-12-15T02:56:19.165Z,52.41
2022-12-15T02:59:29.289Z,54.54
2022-12-15T03:02:03.739Z,56.34
2022-12-15T03:04:34.229Z,58.32
2022-12-15T03:07:05.472Z,59.75
2022-12-15T03:09:33.545Z,60.88
2022-12-15T03:12:02.005Z,61.84
2022-12-15T03:14:30.099Z,69.93
2022-12-15T03:16:58.086Z,72.29
2022-12-15T03:19:26.189Z,62.62
2022-12-15T03:21:54.192Z,51.91
2022-12-15T03:24:21.959Z,49.70
2022-12-15T03:26:50.355Z,51.76
2022-12-15T03:29:18.517Z,53.66
2022-12-15T03:31:49.912Z,55.47
2022-12-15T03:34:18.629Z,57.05
2022-12-15T03:36:47.112Z,58.89
2022-12-15T03:39:14.929Z,60.02
2022-12-15T03:41:43.269Z,61.13
2022-12-15T03:44:11.282Z,66.77
2022-12-15T03:46:39.176Z,71.99
2022-12-15T03:49:07.485Z,63.78
2022-12-15T03:51:35.714Z,54.99
2022-12-15T03:54:03.657Z,50.78
2022-12-15T03:56:32.705Z,52.35
2022-12-15T03:59:01.114Z,54.38
2022-12-15T04:01:31.886Z,56.07
2022-12-15T04:04:01.788Z,57.65
2022-12-15T04:06:31.045Z,58.87
2022-12-15T04:08:59.188Z,60.01
2022-12-15T04:11:27.173Z,61.32
2022-12-15T04:13:55.124Z,68.06
2022-12-15T04:16:23.419Z,72.03
2022-12-15T04:19:11.430Z,61.86
2022-12-15T04:21:39.571Z,50.00
2022-12-15T04:24:26.849Z,49.97
2022-12-15T04:27:13.981Z,52.16
2022-12-15T04:30:00.799Z,54.39
2022-12-15T04:32:49.670Z,56.22
2022-12-15T04:35:37.384Z,57.86
2022-12-15T04:38:24.136Z,59.18
2022-12-15T04:41:11.180Z,60.43
2022-12-15T04:43:58.631Z,61.50
2022-12-15T04:46:45.711Z,69.88
2022-12-15T04:49:32.106Z,70.98
2022-12-15T04:52:19.166Z,60.81
2022-12-15T04:55:05.702Z,49.97
2022-12-15T04:57:52.218Z,49.83
2022-12-15T05:00:38.985Z,52.07
2022-12-15T05:03:27.033Z,54.21
2022-12-15T05:06:16.177Z,56.19
2022-12-15T05:09:02.993Z,57.90
2022-12-15T05:11:50.208Z,59.24
2022-12-15T05:14:37.101Z,60.03
2022-12-15T05:17:23.889Z,61.17
2022-12-15T05:20:10.720Z,68.45
2022-12-15T05:22:57.619Z,71.82
2022-12-15T05:25:44.609Z,63.02
2022-12-15T05:28:31.118Z,49.34
2022-12-15T05:31:18.068Z,48.42
2022-12-15T05:33:46.480Z,50.63
2022-12-15T05:36:14.440Z,53.31
2022-12-15T05:38:42.373Z,55.35
2022-12-15T05:41:10.462Z,57.29
2022-12-15T05:43:38.687Z,58.46
2022-12-15T05:46:06.671Z,59.63
2022-12-15T05:48:35.124Z,61.16
2022-12-15T05:51:05.853Z,65.32
2022-12-15T05:53:35.254Z,72.49
2022-12-15T05:56:05.228Z,64.06
2022-12-15T05:58:34.255Z,53.51
2022-12-15T06:01:14.813Z,50.82
2022-12-15T06:03:43.708Z,53.17
2022-12-15T06:06:13.372Z,55.12
2022-12-15T06:08:43.143Z,56.88
2022-12-15T06:11:16.602Z,58.81
2022-12-15T06:13:44.997Z,61.42
2022-12-15T06:16:16.071Z,61.82
2022-12-15T06:18:50.010Z,68.10
2022-12-15T06:21:30.977Z,72.18
2022-12-15T06:23:59.401Z,63.81
2022-12-15T06:26:30.470Z,54.36
2022-12-15T06:29:02.720Z,51.39
2022-12-15T06:31:32.811Z,53.16
2022-12-15T06:34:04.899Z,55.37
2022-12-15T06:36:35.366Z,57.33
2022-12-15T06:39:04.882Z,58.97
2022-12-15T06:41:33.752Z,60.72
2022-12-15T06:44:02.543Z,61.83
2022-12-15T06:46:32.036Z,67.47
2022-12-15T06:49:00.172Z,72.36
2022-12-15T06:51:28.912Z,65.55
2022-12-15T06:53:57.108Z,57.36
2022-12-15T06:56:33.597Z,50.36
2022-12-15T06:59:04.284Z,51.19
2022-12-15T07:01:32.939Z,53.32
2022-12-15T07:04:03.067Z,55.78
2022-12-15T07:06:37.721Z,57.60
2022-12-15T07:09:08.623Z,60.15
2022-12-15T07:11:36.993Z,61.26
2022-12-15T07:14:05.395Z,61.65
2022-12-15T07:16:33.383Z,69.29
2022-12-15T07:19:01.821Z,71.94
2022-12-15T07:21:29.931Z,64.15
2022-12-15T07:23:58.754Z,55.31
2022-12-15T07:26:27.746Z,52.63
2022-12-15T07:28:56.600Z,54.28
2022-12-15T07:31:24.655Z,56.65
2022-12-15T07:33:54.717Z,57.87
2022-12-15T07:36:23.273Z,59.41
2022-12-15T07:38:51.871Z,60.75
2022-12-15T07:41:20.713Z,66.13
2022-12-15T07:43:49.085Z,72.58
2022-12-15T07:46:18.366Z,64.72
2022-12-15T07:48:50.278Z,54.62
2022-12-15T07:51:21.045Z,50.77
2022-12-15T07:53:51.258Z,53.51
2022-12-15T07:56:20.625Z,55.85
2022-12-15T07:58:49.882Z,57.78
2022-12-15T08:01:17.963Z,60.00
2022-12-15T08:03:46.564Z,62.15
2022-12-15T08:06:16.091Z,72.56
2022-12-15T08:08:50.583Z,67.94
2022-12-15T08:11:26.911Z,60.00
2022-12-15T08:14:04.093Z,50.27
2022-12-15T08:16:34.874Z,50.33
2022-12-15T08:19:07.698Z,52.38
2022-12-15T08:21:35.857Z,55.57
2022-12-15T08:24:04.550Z,57.74
2022-12-15T08:26:32.556Z,59.75
2022-12-15T08:31:54.183Z,68.79
2022-12-15T08:34:22.405Z,71.48
2022-12-15T08:36:51.128Z,63.78
2022-12-15T08:39:19.255Z,55.46
2022-12-15T08:41:47.242Z,52.20
2022-12-15T08:44:16.983Z,53.68
2022-12-15T08:46:45.225Z,55.97
2022-12-15T08:49:18.066Z,57.02
2022-12-15T08:51:50.663Z,58.37
2022-12-15T08:54:20.675Z,60.45
2022-12-15T08:56:49.100Z,67.03
2022-12-15T08:59:17.444Z,72.69
2022-12-15T09:01:48.915Z,63.22
2022-12-15T09:04:20.227Z,52.78
2022-12-15T09:06:48.500Z,50.58
2022-12-15T09:09:20.443Z,53.51
2022-12-15T09:11:49.591Z,55.83
2022-12-15T09:14:22.775Z,58.06
2022-12-15T09:16:54.010Z,60.27
2022-12-15T09:19:25.427Z,61.03
2022-12-15T09:21:53.564Z,61.64
2022-12-15T09:24:32.109Z,66.89
2022-12-15T09:27:03.451Z,73.02
2022-12-15T09:29:32.091Z,63.90
2022-12-15T09:31:59.918Z,56.08
2022-12-15T09:34:28.265Z,52.25
2022-12-15T09:36:56.962Z,53.63
2022-12-15T09:39:25.034Z,55.15
2022-12-15T09:41:59.954Z,58.32
2022-12-15T09:44:32.161Z,59.72
2022-12-15T09:47:38.991Z,60.69
2022-12-15T09:50:12.150Z,60.94
2022-12-15T09:52:46.693Z,61.93
2022-12-15T09:55:20.118Z,70.18
2022-12-15T09:57:54.314Z,72.25
2022-12-15T10:00:32.794Z,65.67
2022-12-15T10:03:25.836Z,63.14
2022-12-15T10:09:08.260Z,51.19
2022-12-15T10:11:40.927Z,53.25
2022-12-15T10:14:37.859Z,55.91
2022-12-15T10:17:26.281Z,55.98
2022-12-15T10:20:07.526Z,58.28
2022-12-15T10:22:37.987Z,60.16
2022-12-15T10:25:29.811Z,61.22
2022-12-15T10:28:17.464Z,66.73
2022-12-15T10:30:56.259Z,72.81
2022-12-15T10:33:26.666Z,67.33
2022-12-15T10:35:55.283Z,61.02
2022-12-15T10:38:40.857Z,54.80
2022-12-15T10:41:31.349Z,51.45
2022-12-15T10:43:59.380Z,53.51
2022-12-15T10:46:30.618Z,55.81
2022-12-15T10:49:07.804Z,57.54
2022-12-15T10:51:37.839Z,59.02
2022-12-15T10:54:13.518Z,60.78
2022-12-15T10:56:53.764Z,64.75
2022-12-15T10:59:37.584Z,73.03
2022-12-15T11:02:25.635Z,65.00
2022-12-15T11:04:59.962Z,58.37
2022-12-15T11:07:45.014Z,49.62
2022-12-15T11:10:25.056Z,49.92
2022-12-15T11:13:08.589Z,52.93
2022-12-15T11:16:19.085Z,54.98
2022-12-15T11:18:50.008Z,57.82
2022-12-15T11:21:33.105Z,59.20
2022-12-15T11:24:22.655Z,60.78
2022-12-15T11:27:01.811Z,63.08
2022-12-15T11:29:37.898Z,73.44
2022-12-15T11:32:07.541Z,66.66
2022-12-15T11:34:39.300Z,59.59
2022-12-15T11:37:13.127Z,50.18
2022-12-15T11:40:05.437Z,50.64
2022-12-15T11:42:45.979Z,52.50
2022-12-15T11:45:31.856Z,55.44
2022-12-15T11:48:12.127Z,58.17
2022-12-15T11:51:02.582Z,58.74
2022-12-15T11:53:58.519Z,60.62
2022-12-15T11:56:52.956Z,70.17
2022-12-15T11:59:42.887Z,70.01
2022-12-15T12:02:37.120Z,61.61
2022-12-15T12:05:24.410Z,51.83
2022-12-15T12:08:01.641Z,51.60
2022-12-15T12:10:38.975Z,53.55
2022-12-15T12:13:20.402Z,55.85
2022-12-15T12:16:15.787Z,58.84
2022-12-15T12:19:03.277Z,60.38
2022-12-15T12:21:50.932Z,68.55
2022-12-15T12:24:50.515Z,69.25
2022-12-15T12:27:29.260Z,53.22
2022-12-15T12:30:19.810Z,51.15
2022-12-15T12:33:19.088Z,53.79
2022-12-15T12:35:55.286Z,55.46
2022-12-15T12:38:31.733Z,57.62
2022-12-15T12:41:12.161Z,58.72
2022-12-15T12:43:50.185Z,63.36
2022-12-15T12:46:26.743Z,72.78
2022-12-15T12:49:03.019Z,66.54
2022-12-15T12:51:40.355Z,54.34
2022-12-15T12:54:34.645Z,50.85
2022-12-15T12:57:22.766Z,52.08
2022-12-15T13:00:01.300Z,55.58
2022-12-15T13:02:35.364Z,57.56
2022-12-15T13:05:21.862Z,59.04
2022-12-15T13:08:18.078Z,60.17
2022-12-15T13:10:50.697Z,64.09
2022-12-15T13:13:19.330Z,72.66
2022-12-15T13:15:51.122Z,65.37
2022-12-15T13:18:23.332Z,54.87
2022-12-15T13:20:55.550Z,51.57
2022-12-15T13:23:23.542Z,53.26
2022-12-15T13:25:57.591Z,56.26
2022-12-15T13:28:39.920Z,57.66
2022-12-15T13:31:23.284Z,58.41
2022-12-15T13:33:52.689Z,59.55
2022-12-15T13:36:39.702Z,64.62
2022-12-15T13:39:16.752Z,73.59
2022-12-15T13:42:15.156Z,67.30
2022-12-15T13:44:48.631Z,59.50
2022-12-15T13:47:24.122Z,50.41
2022-12-15T13:50:03.421Z,50.60
2022-12-15T13:53:17.217Z,53.26
2022-12-15T13:55:39.409Z,55.51
2022-12-15T13:58:16.869Z,57.54
2022-12-15T14:00:54.074Z,58.54
2022-12-15T14:03:23.203Z,59.75
2022-12-15T14:05:59.386Z,61.27
2022-12-15T14:08:30.765Z,65.28
2022-12-15T14:11:16.447Z,73.86
2022-12-15T14:13:54.362Z,67.54
2022-12-15T14:16:39.379Z,61.06
2022-12-15T14:19:13.666Z,51.70
2022-12-15T14:21:49.523Z,50.27
2022-12-15T14:24:38.887Z,52.69
2022-12-15T14:27:08.011Z,54.97
2022-12-15T14:29:36.246Z,57.91
2022-12-15T14:32:05.391Z,58.89
2022-12-15T14:34:39.172Z,59.95
2022-12-15T14:37:11.640Z,61.52
2022-12-15T14:39:50.313Z,63.55
2022-12-15T14:42:21.967Z,74.03
2022-12-15T14:44:54.952Z,67.94
2022-12-15T14:47:35.881Z,61.31
2022-12-15T14:50:04.591Z,55.33
2022-12-15T14:52:39.927Z,53.25
2022-12-15T14:55:34.878Z,55.24
2022-12-15T14:58:31.373Z,56.46
2022-12-15T15:01:00.649Z,58.59
2022-12-15T15:03:12.380Z,52.77
2022-12-15T15:03:39.517Z,59.69
2022-12-15T15:06:18.863Z,61.91
2022-12-15T15:08:49.678Z,65.73
2022-12-15T15:11:29.884Z,71.72
2022-12-15T15:14:12.358Z,68.76
2022-12-15T15:16:41.009Z,63.39
2022-12-15T15:19:20.069Z,55.45
2022-12-15T15:21:48.819Z,51.31
2022-12-15T15:24:16.769Z,52.85
2022-12-15T15:26:44.708Z,54.69
2022-12-15T15:29:36.869Z,56.26
2022-12-15T15:32:16.872Z,58.43
2022-12-15T15:34:45.360Z,59.87
2022-12-15T15:37:18.791Z,60.72
2022-12-15T15:39:52.599Z,65.21
2022-12-15T15:42:21.084Z,72.70
2022-12-15T15:44:49.361Z,64.34
2022-12-15T15:47:26.399Z,53.61
2022-12-15T15:49:59.452Z,50.47
2022-12-15T15:52:35.103Z,51.93
2022-12-15T15:55:07.449Z,54.70
2022-12-15T15:57:35.366Z,56.45
2022-12-15T16:00:13.911Z,57.95
2022-12-15T16:02:42.747Z,58.70
2022-12-15T16:05:11.076Z,60.14
2022-12-15T16:07:39.474Z,61.57
2022-12-15T16:10:20.957Z,64.72
2022-12-15T16:12:52.854Z,73.45
2022-12-15T16:15:26.037Z,68.14
2022-12-15T16:17:58.163Z,58.79
2022-12-15T16:20:29.687Z,51.63
2022-12-15T16:23:11.740Z,52.77
2022-12-15T16:25:50.516Z,54.91
2022-12-15T16:28:24.618Z,56.93
2022-12-15T16:30:53.482Z,58.21
2022-12-15T16:33:22.229Z,59.99
2022-12-15T16:35:51.218Z,61.38
2022-12-15T16:38:24.516Z,65.07
2022-12-15T16:40:55.482Z,71.34
2022-12-15T16:43:32.916Z,68.91
2022-12-15T16:46:06.863Z,60.35
2022-12-15T16:48:35.904Z,50.52
2022-12-15T16:51:08.544Z,50.75
2022-12-15T16:53:39.287Z,52.65
2022-12-15T16:56:08.615Z,54.83
2022-12-15T16:58:36.534Z,56.43
2022-12-15T17:01:04.881Z,57.77
2022-12-15T17:03:33.073Z,58.90
2022-12-15T17:06:04.434Z,59.76
2022-12-15T17:08:58.933Z,60.89
2022-12-15T17:11:28.809Z,67.28
2022-12-15T17:14:01.038Z,71.35
2022-12-15T17:16:30.460Z,64.95
2022-12-15T17:18:58.790Z,56.82
2022-12-15T17:21:32.816Z,47.98
2022-12-15T17:24:08.995Z,49.42
2022-12-15T17:26:37.607Z,51.47
2022-12-15T17:29:20.412Z,53.19
2022-12-15T17:31:50.916Z,55.04
2022-12-15T17:34:24.734Z,57.12
2022-12-15T17:36:53.641Z,58.24
2022-12-15T17:39:22.744Z,59.62
2022-12-15T17:41:59.968Z,60.86
2022-12-15T17:44:37.498Z,61.39
2022-12-15T17:47:08.869Z,68.43
2022-12-15T17:49:38.834Z,73.19
2022-12-15T17:52:29.214Z,63.64
2022-12-15T17:54:58.125Z,52.25
2022-12-15T17:57:26.068Z,51.09
2022-12-15T17:59:54.064Z,52.85
2022-12-15T18:02:22.404Z,54.91
2022-12-15T18:04:50.593Z,55.40
2022-12-15T18:07:22.087Z,57.68
2022-12-15T18:09:52.243Z,58.77
2022-12-15T18:12:23.408Z,60.46
2022-12-15T18:14:52.060Z,61.37
2022-12-15T18:17:23.247Z,67.58
2022-12-15T18:19:56.563Z,72.84
2022-12-15T18:22:28.510Z,64.63
2022-12-15T18:24:57.111Z,53.14
2022-12-15T18:27:28.887Z,49.77
2022-12-15T18:29:57.361Z,51.07
2022-12-15T18:32:27.261Z,52.95
2022-12-15T18:34:55.787Z,55.68
2022-12-15T18:37:25.365Z,56.96
2022-12-15T18:39:57.126Z,57.12
2022-12-15T18:42:29.307Z,58.63
2022-12-15T18:45:00.530Z,60.20
2022-12-15T18:47:28.846Z,61.47
2022-12-15T18:49:57.493Z,67.55
2022-12-15T18:52:30.010Z,72.96
2022-12-15T18:55:04.343Z,65.46
2022-12-15T18:57:38.053Z,60.11
2022-12-15T19:00:15.947Z,51.30
2022-12-15T19:02:44.290Z,49.28
2022-12-15T19:05:27.891Z,50.23
2022-12-15T19:08:18.475Z,51.89
2022-12-15T19:10:53.923Z,53.01
2022-12-15T19:13:31.533Z,56.33
2022-12-15T19:16:01.707Z,58.06
2022-12-15T19:18:48.955Z,59.14
2022-12-15T19:21:37.610Z,60.12
2022-12-15T19:24:12.311Z,61.29
2022-12-15T19:26:41.329Z,68.70
2022-12-15T19:29:21.448Z,72.72
2022-12-15T19:31:49.961Z,63.88
2022-12-15T19:34:18.673Z,55.41
2022-12-15T19:36:47.224Z,51.38
2022-12-15T19:39:22.887Z,52.85
2022-12-15T19:41:51.257Z,55.26
2022-12-15T19:44:19.493Z,56.81
2022-12-15T19:46:47.737Z,58.36
2022-12-15T19:49:15.818Z,59.00
2022-12-15T19:51:44.086Z,59.58
2022-12-15T19:54:18.461Z,60.56
2022-12-15T19:56:47.822Z,66.97
2022-12-15T19:59:22.707Z,72.51
2022-12-15T20:01:54.551Z,64.92
2022-12-15T20:04:24.578Z,55.25
2022-12-15T20:06:52.839Z,51.01
2022-12-15T20:09:20.890Z,52.03
2022-12-15T20:11:48.931Z,53.79
2022-12-15T20:14:17.650Z,55.23
2022-12-15T20:16:46.332Z,56.51
2022-12-15T20:19:14.491Z,57.21
2022-12-15T20:21:42.580Z,58.01
2022-12-15T20:24:16.387Z,59.00
2022-12-15T20:26:45.500Z,60.04
2022-12-15T20:29:28.636Z,60.84
2022-12-15T20:31:58.943Z,61.37
2022-12-15T20:34:27.367Z,65.13
2022-12-15T20:36:55.540Z,73.75
2022-12-15T20:39:29.606Z,65.16
2022-12-15T20:42:00.904Z,54.30
2022-12-15T20:44:28.993Z,50.91
2022-12-15T20:46:57.183Z,51.64
2022-12-15T20:49:25.533Z,52.90
2022-12-15T20:51:53.711Z,54.32
2022-12-15T20:54:22.903Z,55.79
2022-12-15T20:56:51.306Z,56.48
2022-12-15T20:59:19.762Z,57.49
2022-12-15T21:01:48.205Z,58.41
2022-12-15T21:04:29.549Z,59.10
2022-12-15T21:06:57.875Z,60.52
2022-12-15T21:09:26.133Z,61.16
2022-12-15T21:11:55.287Z,61.67
2022-12-15T21:14:24.255Z,64.97
2022-12-15T21:16:52.409Z,74.41
2022-12-15T21:19:21.974Z,67.89
2022-12-15T21:21:56.362Z,55.49
2022-12-15T21:24:27.650Z,51.39
2022-12-15T21:26:56.240Z,51.93
2022-12-15T21:29:26.058Z,52.82
2022-12-15T21:31:55.327Z,54.63
2022-12-15T21:34:23.729Z,55.90
2022-12-15T21:36:54.984Z,56.46
2022-12-15T21:39:35.696Z,57.60
2022-12-15T21:42:08.504Z,58.72
2022-12-15T21:44:37.052Z,59.69
2022-12-15T21:47:52.120Z,59.97
2022-12-15T21:50:20.341Z,60.80
2022-12-15T21:52:48.615Z,64.22
2022-12-15T21:55:22.125Z,72.70
2022-12-15T21:57:50.280Z,71.43
2022-12-15T22:00:21.348Z,65.56
2022-12-15T22:02:52.218Z,61.98
2022-12-15T22:05:22.793Z,54.03
2022-12-15T22:07:51.230Z,50.00
2022-12-15T22:10:19.827Z,50.92
2022-12-15T22:12:59.041Z,52.73
2022-12-15T22:15:29.257Z,54.06
2022-12-15T22:17:57.228Z,55.81
2022-12-15T22:20:25.528Z,56.56
2022-12-15T22:22:53.511Z,57.25
2022-12-15T22:25:25.467Z,58.96
2022-12-15T22:27:54.992Z,60.14
2022-12-15T22:30:26.225Z,60.80
2022-12-15T22:32:54.744Z,61.65
2022-12-15T22:35:25.768Z,67.67
2022-12-15T22:37:56.645Z,75.96
2022-12-15T22:40:25.057Z,67.13
2022-12-15T22:42:57.823Z,60.77
2022-12-15T22:45:25.857Z,55.39
2022-12-15T22:47:55.200Z,53.96
2022-12-15T22:50:26.929Z,54.77
2022-12-15T22:52:55.230Z,56.16
2022-12-15T22:55:24.667Z,57.10
2022-12-15T22:58:03.310Z,57.96
2022-12-15T23:00:32.070Z,58.83
2022-12-15T23:03:00.360Z,59.99
2022-12-15T23:05:28.548Z,61.08
2022-12-15T23:07:56.772Z,65.99
2022-12-15T23:10:43.528Z,71.64
2022-12-15T23:13:11.742Z,67.80
2022-12-15T23:15:58.701Z,66.91
2022-12-15T23:18:26.840Z,64.95
2022-12-15T23:20:56.051Z,65.15
2022-12-15T23:23:26.070Z,68.22
2022-12-15T23:25:55.352Z,58.73
2022-12-15T23:28:23.180Z,52.26
2022-12-15T23:30:52.479Z,52.70
2022-12-15T23:33:21.431Z,53.89
2022-12-15T23:35:49.408Z,55.19
2022-12-15T23:38:20.922Z,56.20
2022-12-15T23:40:53.119Z,57.72
2022-12-15T23:43:22.787Z,58.81
2022-12-15T23:46:00.889Z,60.35
2022-12-15T23:48:31.830Z,61.25
2022-12-15T23:51:11.991Z,65.75
2022-12-15T23:53:41.075Z,74.42
2022-12-15T23:56:12.892Z,69.82
2022-12-15T23:58:42.950Z,62.35
